Aérodrome :
LOGIN :

S'inscrire | Disclaimer

   EN    FR    IT 

 










Légende :    VFR   VFR Marginal   IFR   IFR Intensif   IFR Très Intensif
Visi : 
Plafond : 
>= 8 km
>= 3000ft
5 à 8 km
1000 à 3000 ft
1500m à 5 km
500 à 1000 ft
800 à 1500m
200 à 500 ft
< 800m
< 200 ft
Symboles :   Orages  Brouillard  Fortes neiges  Fortes précipitations  Vent > 20 kt
SIGMETs :   Divers  Orages  Givrage  Turbulence  Onde Orograph.  Cendres Volcan.







- Altitude de l'aérodrome : 600 ft
- Code IATA : VIE


LOWW - Vienna Schwechat

DERNIER METAR :
  • 231650Z 23011KT 9999 FEW060 FEW060CB BKN080 25/11 Q1012 TEMPO FM1800 29010KT

METARs EXPIRÉS :
  • 231620Z 36004KT 9999 FEW060 FEW060CB SCT080 BKN200 25/12 Q1012 NOSIG
  • 231550Z 34006KT 9999 FEW060 FEW060CB SCT200 26/12 Q1012 NOSIG
  • 231520Z VRB04KT 9999 FEW060 FEW060CB SCT200 27/10 Q1012 NOSIG
  • 231450Z 06003KT 320V110 9999 FEW060 FEW060CB SCT200 27/11 Q1012 NOSIG
  • 231420Z 03005KT 330V070 9999 FEW050 FEW050CB SCT080 27/12 Q1012 NOSIG

TAF TAF LOWW
Valide du 23 à 12h jusqu'au 24 à 18h UTC


231115Z 2312/2418 29010KT 9999 FEW050CB SCT300 TX28/2314Z TN16/2404Z
PROB40
TEMPO 2313/2320 30015G25KT 6000 TSRA BKN050 FEW050CB
TEMPO 2400/2406 32015G25KT SHRA BKN040 FEW050CB
BECMG 2406/2408 FEW050
Pas de NOTAMs connus pour ce terrain.



MET'MAP, la Météo Aéronautique d'un coup d'oeil ! - Copyright ORBIFLY Décembre 2007 - Disclaimer

ORBIFLY MET'MAP TEAM :

Programmation & Développement : Alexandra Zaïnal
Conception & Développement : Baudouin d'Aumeries
Co-Programmation & Développement : Marc-Olivier Méhu
Soutien technique & logistique : Manuel Goepfert

Contact : metmap@orbifly.com




SOURCES & CREDITS :

   NOAA